createdAt,value
2022-08-30T00:01:06.486Z,1.25
2022-08-30T00:11:29.131Z,1.67
2022-08-30T00:21:51.768Z,1.50
2022-08-30T00:32:13.279Z,1.60
2022-08-30T00:42:35.482Z,1.38
2022-08-30T00:53:01.550Z,1.75
2022-08-30T01:03:27.433Z,1.48
2022-08-30T01:13:51.207Z,1.85
2022-08-30T01:24:13.510Z,1.60
2022-08-30T01:34:35.472Z,1.40
2022-08-30T01:44:57.051Z,1.70
2022-08-30T01:55:18.647Z,1.52
2022-08-30T02:05:40.275Z,1.50
2022-08-30T02:16:01.813Z,1.50
2022-08-30T02:26:23.415Z,1.70
2022-08-30T02:36:45.573Z,1.85
2022-08-30T02:47:07.481Z,1.77
2022-08-30T02:57:28.994Z,1.83
2022-08-30T03:28:34.067Z,1.67
2022-08-30T03:38:55.655Z,1.75
2022-08-30T03:49:17.929Z,2.70
2022-08-30T03:59:39.693Z,2.85
2022-08-30T04:10:01.620Z,2.40
2022-08-30T04:20:23.210Z,2.25
2022-08-30T04:30:46.598Z,2.28
2022-08-30T04:51:33.839Z,2.60
2022-08-30T05:12:16.867Z,1.93
2022-08-30T05:33:02.831Z,1.92
2022-08-30T05:43:26.858Z,2.13
2022-08-30T05:53:53.566Z,1.40
2022-08-30T06:04:15.860Z,2.08
2022-08-30T06:14:38.937Z,2.17
2022-08-30T06:25:00.466Z,1.67
2022-08-30T06:45:43.448Z,2.17
2022-08-30T06:56:08.379Z,1.80
2022-08-30T07:06:30.438Z,2.17
2022-08-30T07:16:52.152Z,1.52
2022-08-30T07:27:14.964Z,1.60
2022-08-30T07:37:36.754Z,1.17
2022-08-30T07:47:58.649Z,0.98
2022-08-30T07:58:20.811Z,0.98
2022-08-30T08:08:43.669Z,1.00
2022-08-30T08:19:08.979Z,1.20
2022-08-30T08:29:30.628Z,0.98
2022-08-30T08:39:52.615Z,1.13
2022-08-30T08:50:18.856Z,1.20
2022-08-30T09:00:40.535Z,1.10
2022-08-30T09:11:06.761Z,1.55
2022-08-30T09:21:28.772Z,1.05
2022-08-30T09:32:05.653Z,1.10
2022-08-30T09:42:36.642Z,0.80
2022-08-30T09:53:34.357Z,0.98
2022-08-30T10:04:15.164Z,1.10
2022-08-30T10:15:09.545Z,0.98
2022-08-30T10:25:36.326Z,0.88
2022-08-30T10:36:00.582Z,0.90
2022-08-30T10:46:33.500Z,0.70
2022-08-30T10:56:57.306Z,0.82
2022-08-30T11:07:41.400Z,0.65
2022-08-30T11:18:11.480Z,1.00
2022-08-30T11:28:36.002Z,0.70
2022-08-30T11:39:03.645Z,0.85
2022-08-30T11:50:09.769Z,0.60
2022-08-30T12:00:51.325Z,0.80
2022-08-30T12:11:13.119Z,0.70
2022-08-30T12:21:45.102Z,0.70
2022-08-30T12:32:23.490Z,0.70
2022-08-30T12:43:00.798Z,0.80
2022-08-30T12:53:29.659Z,0.70
2022-08-30T13:03:59.759Z,0.65
2022-08-30T13:14:24.503Z,0.60
2022-08-30T13:24:46.615Z,0.70
2022-08-30T13:35:12.529Z,0.40
2022-08-30T13:45:41.766Z,0.73
2022-08-30T13:56:05.067Z,0.43
2022-08-30T14:06:33.620Z,0.50
2022-08-30T14:16:56.029Z,0.60
2022-08-30T14:27:17.670Z,0.57
2022-08-30T14:37:39.433Z,0.80
2022-08-30T14:48:03.858Z,0.60
2022-08-30T14:58:32.893Z,0.70
2022-08-30T15:08:55.696Z,0.77
2022-08-30T15:19:17.270Z,0.52
2022-08-30T15:29:38.810Z,0.68
2022-08-30T15:40:00.673Z,0.70
2022-08-30T15:50:26.469Z,0.80
2022-08-30T16:00:49.128Z,0.80
2022-08-30T16:11:13.139Z,0.80
2022-08-30T16:21:37.012Z,0.70
2022-08-30T16:31:59.872Z,0.82
2022-08-30T16:42:21.641Z,0.80
2022-08-30T16:52:44.338Z,1.02
2022-08-30T17:03:09.496Z,0.93
2022-08-30T17:13:33.162Z,0.77
2022-08-30T17:23:54.815Z,0.77
2022-08-30T17:34:24.374Z,0.70
2022-08-30T17:44:48.053Z,1.05
2022-08-30T17:55:11.239Z,1.10
2022-08-30T18:05:32.882Z,0.80
2022-08-30T18:16:01.988Z,0.70
2022-08-30T18:26:24.547Z,0.85
2022-08-30T18:36:46.893Z,0.90
2022-08-30T18:47:09.645Z,0.90
2022-08-30T18:57:33.876Z,0.80
2022-08-30T19:07:57.418Z,0.82
2022-08-30T19:18:22.267Z,0.90
2022-08-30T19:28:43.895Z,0.73
2022-08-30T19:39:05.685Z,0.93
2022-08-30T19:49:27.545Z,1.00
2022-08-30T19:59:49.062Z,1.00
2022-08-30T20:10:12.931Z,1.00
2022-08-30T20:20:36.319Z,0.60
2022-08-30T20:30:58.606Z,0.70
2022-08-30T20:41:20.274Z,0.75
2022-08-30T20:51:41.856Z,0.70
2022-08-30T21:02:04.551Z,0.70
2022-08-30T21:12:26.457Z,0.73
2022-08-30T21:22:47.988Z,0.85
2022-08-30T21:33:09.609Z,0.65
2022-08-30T21:43:31.115Z,0.50
2022-08-30T21:53:52.681Z,0.50
2022-08-30T22:04:15.362Z,0.40
2022-08-30T22:14:36.949Z,0.47
2022-08-30T22:24:58.550Z,0.43
2022-08-30T22:35:20.199Z,0.40
2022-08-30T22:45:42.193Z,0.30
2022-08-30T22:56:16.218Z,0.30
2022-08-30T23:06:37.792Z,0.50
2022-08-30T23:16:59.407Z,0.45
2022-08-30T23:27:42.080Z,0.40
2022-08-30T23:38:24.213Z,0.20
2022-08-30T23:49:04.286Z,0.40
2022-08-30T23:59:44.975Z,0.20
